sensor_id;sensor_type;location;lat;lon;timestamp;P1;durP1;ratioP1;P2;durP2;ratioP2
41897;SDS011;27576;53.366;-1.498;2022-07-24T00:01:31;8.05;;;4.28;;
41897;SDS011;27576;53.366;-1.498;2022-07-24T00:03:56;5.55;;;3.40;;
41897;SDS011;27576;53.366;-1.498;2022-07-24T00:06:22;4.88;;;3.70;;
41897;SDS011;27576;53.366;-1.498;2022-07-24T00:08:48;5.35;;;3.85;;
41897;SDS011;27576;53.366;-1.498;2022-07-24T00:11:13;4.47;;;3.35;;
41897;SDS011;27576;53.366;-1.498;2022-07-24T00:13:39;4.32;;;3.42;;
41897;SDS011;27576;53.366;-1.498;2022-07-24T00:16:04;4.80;;;3.63;;
41897;SDS011;27576;53.366;-1.498;2022-07-24T00:18:32;3.88;;;3.30;;
41897;SDS011;27576;53.366;-1.498;2022-07-24T00:20:57;5.25;;;3.40;;
41897;SDS011;27576;53.366;-1.498;2022-07-24T00:23:23;7.07;;;3.85;;
41897;SDS011;27576;53.366;-1.498;2022-07-24T00:25:49;6.20;;;3.65;;
41897;SDS011;27576;53.366;-1.498;2022-07-24T00:28:15;4.22;;;3.20;;
41897;SDS011;27576;53.366;-1.498;2022-07-24T00:30:41;5.72;;;3.88;;
41897;SDS011;27576;53.366;-1.498;2022-07-24T00:33:06;4.95;;;3.75;;
41897;SDS011;27576;53.366;-1.498;2022-07-24T00:35:32;8.20;;;3.70;;
41897;SDS011;27576;53.366;-1.498;2022-07-24T00:37:57;5.40;;;4.05;;
41897;SDS011;27576;53.366;-1.498;2022-07-24T00:40:23;5.20;;;3.47;;
41897;SDS011;27576;53.366;-1.498;2022-07-24T00:42:49;5.10;;;3.30;;
41897;SDS011;27576;53.366;-1.498;2022-07-24T00:45:16;4.53;;;3.67;;
41897;SDS011;27576;53.366;-1.498;2022-07-24T00:47:42;6.05;;;4.20;;
41897;SDS011;27576;53.366;-1.498;2022-07-24T00:50:07;5.13;;;3.40;;
41897;SDS011;27576;53.366;-1.498;2022-07-24T00:52:33;6.00;;;3.60;;
41897;SDS011;27576;53.366;-1.498;2022-07-24T00:54:59;6.88;;;3.70;;
41897;SDS011;27576;53.366;-1.498;2022-07-24T00:57:25;5.68;;;3.47;;
41897;SDS011;27576;53.366;-1.498;2022-07-24T00:59:50;4.18;;;3.40;;
41897;SDS011;27576;53.366;-1.498;2022-07-24T01:02:16;6.10;;;3.50;;
41897;SDS011;27576;53.366;-1.498;2022-07-24T01:04:41;6.47;;;3.58;;
41897;SDS011;27576;53.366;-1.498;2022-07-24T01:07:07;5.82;;;3.13;;
41897;SDS011;27576;53.366;-1.498;2022-07-24T01:09:33;5.25;;;3.40;;
41897;SDS011;27576;53.366;-1.498;2022-07-24T01:12:00;10.40;;;3.28;;
41897;SDS011;27576;53.366;-1.498;2022-07-24T01:14:26;3.40;;;3.10;;
41897;SDS011;27576;53.366;-1.498;2022-07-24T01:16:52;5.68;;;3.00;;
41897;SDS011;27576;53.366;-1.498;2022-07-24T01:19:17;3.95;;;3.22;;
41897;SDS011;27576;53.366;-1.498;2022-07-24T01:21:50;3.35;;;3.05;;
41897;SDS011;27576;53.366;-1.498;2022-07-24T01:24:17;4.18;;;2.95;;
41897;SDS011;27576;53.366;-1.498;2022-07-24T01:26:44;6.63;;;3.88;;
41897;SDS011;27576;53.366;-1.498;2022-07-24T01:29:10;4.45;;;3.35;;
41897;SDS011;27576;53.366;-1.498;2022-07-24T01:31:36;4.85;;;3.28;;
41897;SDS011;27576;53.366;-1.498;2022-07-24T01:34:01;6.60;;;3.47;;
41897;SDS011;27576;53.366;-1.498;2022-07-24T01:36:27;3.85;;;3.40;;
41897;SDS011;27576;53.366;-1.498;2022-07-24T01:38:53;5.90;;;3.05;;
41897;SDS011;27576;53.366;-1.498;2022-07-24T01:41:18;4.88;;;3.08;;
41897;SDS011;27576;53.366;-1.498;2022-07-24T01:43:43;3.53;;;3.20;;
41897;SDS011;27576;53.366;-1.498;2022-07-24T01:46:09;5.03;;;3.72;;
41897;SDS011;27576;53.366;-1.498;2022-07-24T01:48:36;6.28;;;3.63;;
41897;SDS011;27576;53.366;-1.498;2022-07-24T01:51:02;4.88;;;3.72;;
41897;SDS011;27576;53.366;-1.498;2022-07-24T01:53:28;4.80;;;3.65;;
41897;SDS011;27576;53.366;-1.498;2022-07-24T01:55:53;6.75;;;3.60;;
41897;SDS011;27576;53.366;-1.498;2022-07-24T01:58:19;6.03;;;3.75;;
41897;SDS011;27576;53.366;-1.498;2022-07-24T02:00:45;8.25;;;3.60;;
41897;SDS011;27576;53.366;-1.498;2022-07-24T02:03:11;8.95;;;3.97;;
41897;SDS011;27576;53.366;-1.498;2022-07-24T02:05:36;5.30;;;4.05;;
41897;SDS011;27576;53.366;-1.498;2022-07-24T02:08:02;6.60;;;3.80;;
41897;SDS011;27576;53.366;-1.498;2022-07-24T02:10:28;4.28;;;3.25;;
41897;SDS011;27576;53.366;-1.498;2022-07-24T02:12:54;5.50;;;3.60;;
41897;SDS011;27576;53.366;-1.498;2022-07-24T02:15:19;5.15;;;3.60;;
41897;SDS011;27576;53.366;-1.498;2022-07-24T02:17:46;4.47;;;4.00;;
41897;SDS011;27576;53.366;-1.498;2022-07-24T02:20:12;7.05;;;3.35;;
41897;SDS011;27576;53.366;-1.498;2022-07-24T02:22:39;5.40;;;4.00;;
41897;SDS011;27576;53.366;-1.498;2022-07-24T02:25:04;6.53;;;3.38;;
41897;SDS011;27576;53.366;-1.498;2022-07-24T02:27:31;6.03;;;3.65;;
41897;SDS011;27576;53.366;-1.498;2022-07-24T02:29:56;5.38;;;4.00;;
41897;SDS011;27576;53.366;-1.498;2022-07-24T02:32:21;5.00;;;3.45;;
41897;SDS011;27576;53.366;-1.498;2022-07-24T02:34:47;5.28;;;3.20;;
41897;SDS011;27576;53.366;-1.498;2022-07-24T02:37:12;6.45;;;3.40;;
41897;SDS011;27576;53.366;-1.498;2022-07-24T02:39:38;10.15;;;4.43;;
41897;SDS011;27576;53.366;-1.498;2022-07-24T02:42:03;5.70;;;4.07;;
41897;SDS011;27576;53.366;-1.498;2022-07-24T02:44:29;5.05;;;4.10;;
41897;SDS011;27576;53.366;-1.498;2022-07-24T02:46:54;5.97;;;3.85;;
41897;SDS011;27576;53.366;-1.498;2022-07-24T02:49:20;8.35;;;3.92;;
41897;SDS011;27576;53.366;-1.498;2022-07-24T02:51:45;4.85;;;3.90;;
41897;SDS011;27576;53.366;-1.498;2022-07-24T02:54:10;6.30;;;3.70;;
41897;SDS011;27576;53.366;-1.498;2022-07-24T02:56:36;4.90;;;3.88;;
41897;SDS011;27576;53.366;-1.498;2022-07-24T02:59:01;8.48;;;4.18;;
41897;SDS011;27576;53.366;-1.498;2022-07-24T03:01:26;3.55;;;3.25;;
41897;SDS011;27576;53.366;-1.498;2022-07-24T03:03:52;4.43;;;3.88;;
41897;SDS011;27576;53.366;-1.498;2022-07-24T03:06:17;5.32;;;3.60;;
41897;SDS011;27576;53.366;-1.498;2022-07-24T03:08:43;5.60;;;3.78;;
41897;SDS011;27576;53.366;-1.498;2022-07-24T03:11:08;4.32;;;3.65;;
41897;SDS011;27576;53.366;-1.498;2022-07-24T03:13:33;8.82;;;4.00;;
41897;SDS011;27576;53.366;-1.498;2022-07-24T03:15:59;5.78;;;3.53;;
41897;SDS011;27576;53.366;-1.498;2022-07-24T03:18:24;5.13;;;3.40;;
41897;SDS011;27576;53.366;-1.498;2022-07-24T03:20:50;3.78;;;3.38;;
41897;SDS011;27576;53.366;-1.498;2022-07-24T03:23:15;6.20;;;3.72;;
41897;SDS011;27576;53.366;-1.498;2022-07-24T03:25:41;4.50;;;3.33;;
41897;SDS011;27576;53.366;-1.498;2022-07-24T03:28:06;5.53;;;3.47;;
41897;SDS011;27576;53.366;-1.498;2022-07-24T03:30:31;3.67;;;2.90;;
41897;SDS011;27576;53.366;-1.498;2022-07-24T03:32:57;4.15;;;2.88;;
41897;SDS011;27576;53.366;-1.498;2022-07-24T03:35:22;3.90;;;3.05;;
41897;SDS011;27576;53.366;-1.498;2022-07-24T03:37:48;7.10;;;3.22;;
41897;SDS011;27576;53.366;-1.498;2022-07-24T03:40:13;3.85;;;2.92;;
41897;SDS011;27576;53.366;-1.498;2022-07-24T03:42:38;4.47;;;3.10;;
41897;SDS011;27576;53.366;-1.498;2022-07-24T03:45:04;3.28;;;2.90;;
41897;SDS011;27576;53.366;-1.498;2022-07-24T03:47:30;7.75;;;3.05;;
41897;SDS011;27576;53.366;-1.498;2022-07-24T03:49:55;4.53;;;3.10;;
41897;SDS011;27576;53.366;-1.498;2022-07-24T03:52:21;2.95;;;2.60;;
41897;SDS011;27576;53.366;-1.498;2022-07-24T03:54:47;3.10;;;2.58;;
41897;SDS011;27576;53.366;-1.498;2022-07-24T03:57:12;3.28;;;2.92;;
41897;SDS011;27576;53.366;-1.498;2022-07-24T03:59:37;3.08;;;2.63;;
41897;SDS011;27576;53.366;-1.498;2022-07-24T04:02:03;2.50;;;2.30;;
41897;SDS011;27576;53.366;-1.498;2022-07-24T04:04:28;2.92;;;2.60;;
41897;SDS011;27576;53.366;-1.498;2022-07-24T04:06:54;2.53;;;2.10;;
41897;SDS011;27576;53.366;-1.498;2022-07-24T04:09:19;3.25;;;2.42;;
41897;SDS011;27576;53.366;-1.498;2022-07-24T04:11:45;4.55;;;2.60;;
41897;SDS011;27576;53.366;-1.498;2022-07-24T04:14:11;2.78;;;2.30;;
41897;SDS011;27576;53.366;-1.498;2022-07-24T04:16:37;3.17;;;2.35;;
41897;SDS011;27576;53.366;-1.498;2022-07-24T04:19:02;2.72;;;2.40;;
41897;SDS011;27576;53.366;-1.498;2022-07-24T04:21:28;2.42;;;2.22;;
41897;SDS011;27576;53.366;-1.498;2022-07-24T04:23:53;2.47;;;1.92;;
41897;SDS011;27576;53.366;-1.498;2022-07-24T04:26:19;2.30;;;2.10;;
41897;SDS011;27576;53.366;-1.498;2022-07-24T04:28:44;3.22;;;2.28;;
41897;SDS011;27576;53.366;-1.498;2022-07-24T04:31:10;2.20;;;2.00;;
41897;SDS011;27576;53.366;-1.498;2022-07-24T04:33:35;3.15;;;2.05;;
41897;SDS011;27576;53.366;-1.498;2022-07-24T04:36:02;3.08;;;2.38;;
41897;SDS011;27576;53.366;-1.498;2022-07-24T04:38:29;3.30;;;1.98;;
41897;SDS011;27576;53.366;-1.498;2022-07-24T04:40:55;3.90;;;2.42;;
41897;SDS011;27576;53.366;-1.498;2022-07-24T04:43:20;2.50;;;2.30;;
41897;SDS011;27576;53.366;-1.498;2022-07-24T04:45:46;3.28;;;2.30;;
41897;SDS011;27576;53.366;-1.498;2022-07-24T04:48:11;2.00;;;1.90;;
41897;SDS011;27576;53.366;-1.498;2022-07-24T04:50:37;2.58;;;2.38;;
41897;SDS011;27576;53.366;-1.498;2022-07-24T04:53:02;2.72;;;2.35;;
41897;SDS011;27576;53.366;-1.498;2022-07-24T04:55:28;2.75;;;2.22;;
41897;SDS011;27576;53.366;-1.498;2022-07-24T04:57:53;4.03;;;2.35;;
41897;SDS011;27576;53.366;-1.498;2022-07-24T05:00:19;2.03;;;1.85;;
41897;SDS011;27576;53.366;-1.498;2022-07-24T05:02:44;2.95;;;1.75;;
41897;SDS011;27576;53.366;-1.498;2022-07-24T05:05:10;3.05;;;1.80;;
41897;SDS011;27576;53.366;-1.498;2022-07-24T05:07:36;2.58;;;1.75;;
41897;SDS011;27576;53.366;-1.498;2022-07-24T05:10:01;3.83;;;2.10;;
41897;SDS011;27576;53.366;-1.498;2022-07-24T05:12:28;3.83;;;1.85;;
41897;SDS011;27576;53.366;-1.498;2022-07-24T05:14:53;4.18;;;2.05;;
41897;SDS011;27576;53.366;-1.498;2022-07-24T05:17:19;1.88;;;1.65;;
41897;SDS011;27576;53.366;-1.498;2022-07-24T05:19:44;2.58;;;1.60;;
41897;SDS011;27576;53.366;-1.498;2022-07-24T05:22:10;1.73;;;1.63;;
41897;SDS011;27576;53.366;-1.498;2022-07-24T05:24:35;2.08;;;1.48;;
41897;SDS011;27576;53.366;-1.498;2022-07-24T05:27:00;2.42;;;1.85;;
41897;SDS011;27576;53.366;-1.498;2022-07-24T05:29:26;2.22;;;1.77;;
41897;SDS011;27576;53.366;-1.498;2022-07-24T05:31:51;2.35;;;1.70;;
41897;SDS011;27576;53.366;-1.498;2022-07-24T05:34:19;1.90;;;1.80;;
41897;SDS011;27576;53.366;-1.498;2022-07-24T05:36:48;2.60;;;1.63;;
41897;SDS011;27576;53.366;-1.498;2022-07-24T05:39:13;1.60;;;1.50;;
41897;SDS011;27576;53.366;-1.498;2022-07-24T05:41:39;1.70;;;1.60;;
41897;SDS011;27576;53.366;-1.498;2022-07-24T05:44:04;2.53;;;1.50;;
41897;SDS011;27576;53.366;-1.498;2022-07-24T05:46:30;1.73;;;1.55;;
41897;SDS011;27576;53.366;-1.498;2022-07-24T05:48:56;3.33;;;1.65;;
41897;SDS011;27576;53.366;-1.498;2022-07-24T05:51:21;1.50;;;1.30;;
41897;SDS011;27576;53.366;-1.498;2022-07-24T05:53:46;1.80;;;1.67;;
41897;SDS011;27576;53.366;-1.498;2022-07-24T05:56:12;1.50;;;1.40;;
41897;SDS011;27576;53.366;-1.498;2022-07-24T05:58:37;2.03;;;1.83;;
41897;SDS011;27576;53.366;-1.498;2022-07-24T06:01:03;1.63;;;1.52;;
41897;SDS011;27576;53.366;-1.498;2022-07-24T06:03:28;1.60;;;1.50;;
41897;SDS011;27576;53.366;-1.498;2022-07-24T06:05:53;1.35;;;1.20;;
41897;SDS011;27576;53.366;-1.498;2022-07-24T06:08:19;1.20;;;1.10;;
41897;SDS011;27576;53.366;-1.498;2022-07-24T06:10:44;1.95;;;1.13;;
41897;SDS011;27576;53.366;-1.498;2022-07-24T06:13:10;1.70;;;1.58;;
41897;SDS011;27576;53.366;-1.498;2022-07-24T06:15:35;1.95;;;1.25;;
41897;SDS011;27576;53.366;-1.498;2022-07-24T06:18:01;2.25;;;1.00;;
41897;SDS011;27576;53.366;-1.498;2022-07-24T06:20:26;1.00;;;1.00;;
41897;SDS011;27576;53.366;-1.498;2022-07-24T06:22:52;0.90;;;0.90;;
41897;SDS011;27576;53.366;-1.498;2022-07-24T06:25:17;1.42;;;0.90;;
41897;SDS011;27576;53.366;-1.498;2022-07-24T06:27:45;1.08;;;0.98;;
41897;SDS011;27576;53.366;-1.498;2022-07-24T06:30:22;1.30;;;1.20;;
41897;SDS011;27576;53.366;-1.498;2022-07-24T06:32:49;1.25;;;0.93;;
41897;SDS011;27576;53.366;-1.498;2022-07-24T06:35:15;0.88;;;0.88;;
41897;SDS011;27576;53.366;-1.498;2022-07-24T06:37:41;1.30;;;1.00;;
41897;SDS011;27576;53.366;-1.498;2022-07-24T06:40:07;1.40;;;1.13;;
41897;SDS011;27576;53.366;-1.498;2022-07-24T06:42:33;1.10;;;1.05;;
41897;SDS011;27576;53.366;-1.498;2022-07-24T06:44:58;1.85;;;1.20;;
41897;SDS011;27576;53.366;-1.498;2022-07-24T06:47:24;0.90;;;0.90;;
41897;SDS011;27576;53.366;-1.498;2022-07-24T06:49:51;0.90;;;0.90;;
41897;SDS011;27576;53.366;-1.498;2022-07-24T06:52:17;1.08;;;0.95;;
41897;SDS011;27576;53.366;-1.498;2022-07-24T06:54:42;0.70;;;0.70;;
41897;SDS011;27576;53.366;-1.498;2022-07-24T06:57:08;1.00;;;1.00;;
41897;SDS011;27576;53.366;-1.498;2022-07-24T06:59:33;0.85;;;0.85;;
41897;SDS011;27576;53.366;-1.498;2022-07-24T07:01:59;1.08;;;1.00;;
41897;SDS011;27576;53.366;-1.498;2022-07-24T07:04:24;2.05;;;1.42;;
41897;SDS011;27576;53.366;-1.498;2022-07-24T07:06:49;2.55;;;1.35;;
41897;SDS011;27576;53.366;-1.498;2022-07-24T07:09:15;1.73;;;1.45;;
41897;SDS011;27576;53.366;-1.498;2022-07-24T07:11:40;1.27;;;1.17;;
41897;SDS011;27576;53.366;-1.498;2022-07-24T07:14:06;1.02;;;1.02;;
41897;SDS011;27576;53.366;-1.498;2022-07-24T07:16:31;1.58;;;1.13;;
41897;SDS011;27576;53.366;-1.498;2022-07-24T07:18:56;1.30;;;1.20;;
41897;SDS011;27576;53.366;-1.498;2022-07-24T07:21:22;1.45;;;1.17;;
41897;SDS011;27576;53.366;-1.498;2022-07-24T07:23:47;1.10;;;0.93;;
41897;SDS011;27576;53.366;-1.498;2022-07-24T07:26:13;1.13;;;1.10;;
41897;SDS011;27576;53.366;-1.498;2022-07-24T07:28:38;1.13;;;1.02;;
41897;SDS011;27576;53.366;-1.498;2022-07-24T07:31:04;1.52;;;0.90;;
41897;SDS011;27576;53.366;-1.498;2022-07-24T07:33:29;2.58;;;1.20;;
41897;SDS011;27576;53.366;-1.498;2022-07-24T07:35:55;1.60;;;1.50;;
41897;SDS011;27576;53.366;-1.498;2022-07-24T07:38:20;1.52;;;1.42;;
41897;SDS011;27576;53.366;-1.498;2022-07-24T07:40:45;1.55;;;1.15;;
41897;SDS011;27576;53.366;-1.498;2022-07-24T07:43:11;2.35;;;1.20;;
41897;SDS011;27576;53.366;-1.498;2022-07-24T07:45:36;1.40;;;1.30;;
41897;SDS011;27576;53.366;-1.498;2022-07-24T07:48:02;1.40;;;1.30;;
41897;SDS011;27576;53.366;-1.498;2022-07-24T07:50:28;1.10;;;1.00;;
41897;SDS011;27576;53.366;-1.498;2022-07-24T07:52:53;1.45;;;1.33;;
41897;SDS011;27576;53.366;-1.498;2022-07-24T07:55:19;1.00;;;1.00;;
41897;SDS011;27576;53.366;-1.498;2022-07-24T07:57:45;3.10;;;1.10;;
41897;SDS011;27576;53.366;-1.498;2022-07-24T08:00:11;1.40;;;1.23;;
41897;SDS011;27576;53.366;-1.498;2022-07-24T08:02:37;1.63;;;1.10;;
41897;SDS011;27576;53.366;-1.498;2022-07-24T08:05:02;1.25;;;1.15;;
41897;SDS011;27576;53.366;-1.498;2022-07-24T08:07:28;0.98;;;0.98;;
41897;SDS011;27576;53.366;-1.498;2022-07-24T08:09:53;1.00;;;0.90;;
41897;SDS011;27576;53.366;-1.498;2022-07-24T08:12:19;1.15;;;1.02;;
41897;SDS011;27576;53.366;-1.498;2022-07-24T08:14:44;1.23;;;1.10;;
41897;SDS011;27576;53.366;-1.498;2022-07-24T08:17:09;0.80;;;0.80;;
41897;SDS011;27576;53.366;-1.498;2022-07-24T08:19:36;1.08;;;0.98;;
41897;SDS011;27576;53.366;-1.498;2022-07-24T08:22:02;1.02;;;1.02;;
41897;SDS011;27576;53.366;-1.498;2022-07-24T08:24:29;0.95;;;0.95;;
41897;SDS011;27576;53.366;-1.498;2022-07-24T08:26:57;1.50;;;1.00;;
41897;SDS011;27576;53.366;-1.498;2022-07-24T08:29:23;0.75;;;0.75;;
41897;SDS011;27576;53.366;-1.498;2022-07-24T08:31:48;1.08;;;0.98;;
41897;SDS011;27576;53.366;-1.498;2022-07-24T08:34:14;0.80;;;0.80;;
41897;SDS011;27576;53.366;-1.498;2022-07-24T08:36:39;0.82;;;0.82;;
41897;SDS011;27576;53.366;-1.498;2022-07-24T08:39:05;0.80;;;0.80;;
41897;SDS011;27576;53.366;-1.498;2022-07-24T08:41:31;0.95;;;0.82;;
41897;SDS011;27576;53.366;-1.498;2022-07-24T08:44:01;0.80;;;0.80;;
41897;SDS011;27576;53.366;-1.498;2022-07-24T08:46:28;0.93;;;0.93;;
41897;SDS011;27576;53.366;-1.498;2022-07-24T08:48:53;1.05;;;0.85;;
41897;SDS011;27576;53.366;-1.498;2022-07-24T08:51:20;0.80;;;0.80;;
41897;SDS011;27576;53.366;-1.498;2022-07-24T08:53:49;1.10;;;1.00;;
41897;SDS011;27576;53.366;-1.498;2022-07-24T08:56:15;0.70;;;0.70;;
41897;SDS011;27576;53.366;-1.498;2022-07-24T08:58:41;0.70;;;0.70;;
41897;SDS011;27576;53.366;-1.498;2022-07-24T09:01:07;3.55;;;0.98;;
41897;SDS011;27576;53.366;-1.498;2022-07-24T09:03:42;1.00;;;1.00;;
41897;SDS011;27576;53.366;-1.498;2022-07-24T09:06:10;1.00;;;1.00;;
41897;SDS011;27576;53.366;-1.498;2022-07-24T09:08:44;1.05;;;1.05;;
41897;SDS011;27576;53.366;-1.498;2022-07-24T09:11:22;0.90;;;0.90;;
41897;SDS011;27576;53.366;-1.498;2022-07-24T09:13:47;1.30;;;1.20;;
41897;SDS011;27576;53.366;-1.498;2022-07-24T09:16:36;1.20;;;1.00;;
41897;SDS011;27576;53.366;-1.498;2022-07-24T09:19:05;1.30;;;1.10;;
41897;SDS011;27576;53.366;-1.498;2022-07-24T09:21:36;2.35;;;1.00;;
41897;SDS011;27576;53.366;-1.498;2022-07-24T09:24:11;1.65;;;1.00;;
41897;SDS011;27576;53.366;-1.498;2022-07-24T09:29:12;1.75;;;0.93;;
41897;SDS011;27576;53.366;-1.498;2022-07-24T09:34:23;1.33;;;1.10;;
41897;SDS011;27576;53.366;-1.498;2022-07-24T09:36:57;0.93;;;0.80;;
41897;SDS011;27576;53.366;-1.498;2022-07-24T09:39:31;2.60;;;1.10;;
41897;SDS011;27576;53.366;-1.498;2022-07-24T09:41:57;1.25;;;0.90;;
41897;SDS011;27576;53.366;-1.498;2022-07-24T09:44:23;0.88;;;0.70;;
41897;SDS011;27576;53.366;-1.498;2022-07-24T09:46:57;2.65;;;1.00;;
41897;SDS011;27576;53.366;-1.498;2022-07-24T09:49:24;0.90;;;0.65;;
41897;SDS011;27576;53.366;-1.498;2022-07-24T09:54:46;0.77;;;0.77;;
41897;SDS011;27576;53.366;-1.498;2022-07-24T09:57:46;1.15;;;0.70;;
41897;SDS011;27576;53.366;-1.498;2022-07-24T10:00:05;0.77;;;0.77;;
41897;SDS011;27576;53.366;-1.498;2022-07-24T10:02:32;0.90;;;0.90;;
41897;SDS011;27576;53.366;-1.498;2022-07-24T10:05:00;0.88;;;0.88;;
41897;SDS011;27576;53.366;-1.498;2022-07-24T10:07:28;0.70;;;0.70;;
41897;SDS011;27576;53.366;-1.498;2022-07-24T10:09:56;1.23;;;0.85;;
41897;SDS011;27576;53.366;-1.498;2022-07-24T10:12:27;1.45;;;0.93;;
41897;SDS011;27576;53.366;-1.498;2022-07-24T10:14:55;0.70;;;0.70;;
41897;SDS011;27576;53.366;-1.498;2022-07-24T10:17:34;1.42;;;0.90;;
41897;SDS011;27576;53.366;-1.498;2022-07-24T10:20:06;1.17;;;1.02;;
41897;SDS011;27576;53.366;-1.498;2022-07-24T10:22:36;0.70;;;0.70;;
41897;SDS011;27576;53.366;-1.498;2022-07-24T10:25:16;3.50;;;1.25;;
41897;SDS011;27576;53.366;-1.498;2022-07-24T10:27:44;1.15;;;0.90;;
41897;SDS011;27576;53.366;-1.498;2022-07-24T10:30:16;1.25;;;0.90;;
41897;SDS011;27576;53.366;-1.498;2022-07-24T10:32:43;1.00;;;0.70;;
41897;SDS011;27576;53.366;-1.498;2022-07-24T10:35:15;0.80;;;0.80;;
41897;SDS011;27576;53.366;-1.498;2022-07-24T10:43:13;0.85;;;0.85;;
41897;SDS011;27576;53.366;-1.498;2022-07-24T10:59:05;1.73;;;0.98;;
41897;SDS011;27576;53.366;-1.498;2022-07-24T11:06:47;1.38;;;1.27;;
41897;SDS011;27576;53.366;-1.498;2022-07-24T11:09:14;0.80;;;0.80;;
41897;SDS011;27576;53.366;-1.498;2022-07-24T11:11:42;0.70;;;0.70;;
41897;SDS011;27576;53.366;-1.498;2022-07-24T11:20:06;0.75;;;0.73;;
41897;SDS011;27576;53.366;-1.498;2022-07-24T11:22:46;1.48;;;1.00;;
41897;SDS011;27576;53.366;-1.498;2022-07-24T11:25:18;4.28;;;1.20;;
41897;SDS011;27576;53.366;-1.498;2022-07-24T11:30:22;0.95;;;0.95;;
41897;SDS011;27576;53.366;-1.498;2022-07-24T11:32:48;1.20;;;1.10;;
41897;SDS011;27576;53.366;-1.498;2022-07-24T11:35:14;1.27;;;0.98;;
41897;SDS011;27576;53.366;-1.498;2022-07-24T11:37:41;2.55;;;1.25;;
41897;SDS011;27576;53.366;-1.498;2022-07-24T11:40:08;1.30;;;1.20;;
41897;SDS011;27576;53.366;-1.498;2022-07-24T11:42:38;2.25;;;1.33;;
41897;SDS011;27576;53.366;-1.498;2022-07-24T11:45:03;2.58;;;1.60;;
41897;SDS011;27576;53.366;-1.498;2022-07-24T11:47:29;2.35;;;1.40;;
41897;SDS011;27576;53.366;-1.498;2022-07-24T11:49:56;1.10;;;1.00;;
41897;SDS011;27576;53.366;-1.498;2022-07-24T11:52:32;1.83;;;1.30;;
41897;SDS011;27576;53.366;-1.498;2022-07-24T11:55:02;1.30;;;1.23;;
41897;SDS011;27576;53.366;-1.498;2022-07-24T11:57:33;3.80;;;1.90;;
41897;SDS011;27576;53.366;-1.498;2022-07-24T12:00:01;1.75;;;1.17;;
41897;SDS011;27576;53.366;-1.498;2022-07-24T12:02:28;1.00;;;1.00;;
41897;SDS011;27576;53.366;-1.498;2022-07-24T12:04:54;2.70;;;1.30;;
41897;SDS011;27576;53.366;-1.498;2022-07-24T12:07:20;1.13;;;1.00;;
41897;SDS011;27576;53.366;-1.498;2022-07-24T12:09:49;1.27;;;1.08;;
41897;SDS011;27576;53.366;-1.498;2022-07-24T12:14:48;1.77;;;1.23;;
41897;SDS011;27576;53.366;-1.498;2022-07-24T12:17:15;2.75;;;1.23;;
41897;SDS011;27576;53.366;-1.498;2022-07-24T12:19:41;1.23;;;1.13;;
41897;SDS011;27576;53.366;-1.498;2022-07-24T12:22:15;1.70;;;1.60;;
41897;SDS011;27576;53.366;-1.498;2022-07-24T12:24:41;3.60;;;1.38;;
41897;SDS011;27576;53.366;-1.498;2022-07-24T12:27:06;3.28;;;1.40;;
41897;SDS011;27576;53.366;-1.498;2022-07-24T12:29:32;1.60;;;1.40;;
41897;SDS011;27576;53.366;-1.498;2022-07-24T12:32:17;1.60;;;1.42;;
41897;SDS011;27576;53.366;-1.498;2022-07-24T12:34:43;4.00;;;1.10;;
41897;SDS011;27576;53.366;-1.498;2022-07-24T12:37:17;3.58;;;1.33;;
41897;SDS011;27576;53.366;-1.498;2022-07-24T12:39:47;2.15;;;0.98;;
41897;SDS011;27576;53.366;-1.498;2022-07-24T12:42:14;1.48;;;1.23;;
41897;SDS011;27576;53.366;-1.498;2022-07-24T12:44:44;2.47;;;0.90;;
41897;SDS011;27576;53.366;-1.498;2022-07-24T12:47:10;1.15;;;0.90;;
41897;SDS011;27576;53.366;-1.498;2022-07-24T12:49:40;1.77;;;0.95;;
41897;SDS011;27576;53.366;-1.498;2022-07-24T12:52:18;1.83;;;1.02;;
41897;SDS011;27576;53.366;-1.498;2022-07-24T12:54:48;0.80;;;0.80;;
41897;SDS011;27576;53.366;-1.498;2022-07-24T12:57:15;1.50;;;1.05;;
41897;SDS011;27576;53.366;-1.498;2022-07-24T12:59:45;2.08;;;0.90;;
41897;SDS011;27576;53.366;-1.498;2022-07-24T13:02:12;1.08;;;0.80;;
41897;SDS011;27576;53.366;-1.498;2022-07-24T13:04:46;1.58;;;1.10;;
41897;SDS011;27576;53.366;-1.498;2022-07-24T13:07:13;0.85;;;0.82;;
41897;SDS011;27576;53.366;-1.498;2022-07-24T13:09:40;1.10;;;1.00;;
41897;SDS011;27576;53.366;-1.498;2022-07-24T13:12:06;1.08;;;0.90;;
41897;SDS011;27576;53.366;-1.498;2022-07-24T13:14:33;1.10;;;0.93;;
41897;SDS011;27576;53.366;-1.498;2022-07-24T13:19:30;2.00;;;1.00;;
41897;SDS011;27576;53.366;-1.498;2022-07-24T13:21:55;1.02;;;0.82;;
41897;SDS011;27576;53.366;-1.498;2022-07-24T13:24:21;1.20;;;1.00;;
41897;SDS011;27576;53.366;-1.498;2022-07-24T13:26:46;1.27;;;0.80;;
41897;SDS011;27576;53.366;-1.498;2022-07-24T13:29:12;1.08;;;0.90;;
41897;SDS011;27576;53.366;-1.498;2022-07-24T13:31:38;1.83;;;1.05;;
41897;SDS011;27576;53.366;-1.498;2022-07-24T13:34:04;7.18;;;1.08;;
41897;SDS011;27576;53.366;-1.498;2022-07-24T13:36:30;3.45;;;1.58;;
41897;SDS011;27576;53.366;-1.498;2022-07-24T13:38:58;1.10;;;1.00;;
41897;SDS011;27576;53.366;-1.498;2022-07-24T13:41:23;1.85;;;1.33;;
41897;SDS011;27576;53.366;-1.498;2022-07-24T13:43:49;2.20;;;1.42;;
41897;SDS011;27576;53.366;-1.498;2022-07-24T13:46:15;1.67;;;1.45;;
41897;SDS011;27576;53.366;-1.498;2022-07-24T13:48:42;1.40;;;1.30;;
41897;SDS011;27576;53.366;-1.498;2022-07-24T13:51:09;5.07;;;1.67;;
41897;SDS011;27576;53.366;-1.498;2022-07-24T13:53:34;2.70;;;1.85;;
41897;SDS011;27576;53.366;-1.498;2022-07-24T13:56:01;1.63;;;1.38;;
41897;SDS011;27576;53.366;-1.498;2022-07-24T13:58:28;2.22;;;1.80;;
41897;SDS011;27576;53.366;-1.498;2022-07-24T14:00:53;1.85;;;1.70;;
41897;SDS011;27576;53.366;-1.498;2022-07-24T14:03:19;4.47;;;1.75;;
41897;SDS011;27576;53.366;-1.498;2022-07-24T14:05:44;1.70;;;1.60;;
41897;SDS011;27576;53.366;-1.498;2022-07-24T14:08:10;5.93;;;1.77;;
41897;SDS011;27576;53.366;-1.498;2022-07-24T14:10:35;5.93;;;1.80;;
41897;SDS011;27576;53.366;-1.498;2022-07-24T14:13:01;2.63;;;1.63;;
41897;SDS011;27576;53.366;-1.498;2022-07-24T14:15:26;3.90;;;1.67;;
41897;SDS011;27576;53.366;-1.498;2022-07-24T14:17:54;3.25;;;1.65;;
41897;SDS011;27576;53.366;-1.498;2022-07-24T14:20:20;1.63;;;1.52;;
41897;SDS011;27576;53.366;-1.498;2022-07-24T14:22:45;2.40;;;1.67;;
41897;SDS011;27576;53.366;-1.498;2022-07-24T14:25:11;3.85;;;1.42;;
41897;SDS011;27576;53.366;-1.498;2022-07-24T14:27:36;1.50;;;1.17;;
41897;SDS011;27576;53.366;-1.498;2022-07-24T14:30:04;2.03;;;0.90;;
41897;SDS011;27576;53.366;-1.498;2022-07-24T14:32:30;2.97;;;1.60;;
41897;SDS011;27576;53.366;-1.498;2022-07-24T14:34:55;1.67;;;1.40;;
41897;SDS011;27576;53.366;-1.498;2022-07-24T14:37:21;1.63;;;1.20;;
41897;SDS011;27576;53.366;-1.498;2022-07-24T14:39:46;2.20;;;1.40;;
41897;SDS011;27576;53.366;-1.498;2022-07-24T14:42:12;2.28;;;1.58;;
41897;SDS011;27576;53.366;-1.498;2022-07-24T14:44:37;2.30;;;1.20;;
41897;SDS011;27576;53.366;-1.498;2022-07-24T14:47:03;1.80;;;1.50;;
41897;SDS011;27576;53.366;-1.498;2022-07-24T14:49:32;2.65;;;1.52;;
41897;SDS011;27576;53.366;-1.498;2022-07-24T14:51:58;2.30;;;1.33;;
41897;SDS011;27576;53.366;-1.498;2022-07-24T14:54:24;3.88;;;2.00;;
41897;SDS011;27576;53.366;-1.498;2022-07-24T14:56:49;3.78;;;1.83;;
41897;SDS011;27576;53.366;-1.498;2022-07-24T14:59:15;2.92;;;1.70;;
41897;SDS011;27576;53.366;-1.498;2022-07-24T15:01:40;4.60;;;2.20;;
41897;SDS011;27576;53.366;-1.498;2022-07-24T15:04:06;5.05;;;2.17;;
41897;SDS011;27576;53.366;-1.498;2022-07-24T15:06:32;2.65;;;1.88;;
41897;SDS011;27576;53.366;-1.498;2022-07-24T15:08:58;2.33;;;1.83;;
41897;SDS011;27576;53.366;-1.498;2022-07-24T15:11:23;3.25;;;1.80;;
41897;SDS011;27576;53.366;-1.498;2022-07-24T15:13:50;3.53;;;1.63;;
41897;SDS011;27576;53.366;-1.498;2022-07-24T15:16:16;2.30;;;2.05;;